Flight Track Log - Related Links

Times and Time Zones

All times are in EDT time to prevent confusion due to time zone crossing. See the LAK145 flight status page for this flight to view local times or setup timezone preferences in your user account.

Time Position Orientation Groundspeed Altitude Reporting Facility
EDT Latitude Longitude Course Direction KTS MPH feet Rate Location/Type
Thu 12:20:00 PM 44.5833 -92.5333 270° West 168 193 2,900  Level Minneapolis TRACON
Thu 12:22:08 PM 44.5822 -92.6975 157° South 200 230 3,200 505 Climbing Minneapolis Center
Thu 12:23:10 PM 44.5508 -92.7672 238° Southwest 208 239 4,500 1,258 Climbing Minneapolis Center
Thu 12:24:12 PM 44.5192 -92.8372 238° Southwest 210 242 5,800 968 Climbing Minneapolis Center
Thu 12:25:14 PM 44.4786 -92.8936 225° Southwest 215 247 6,500 290 Climbing Minneapolis Center
Thu 12:26:16 PM 44.4136 -92.8908 178° South 233 268 6,400  Descending Minneapolis Center
Thu 12:27:18 PM 44.3525 -92.8858 177° South 224 258 6,500  Climbing Minneapolis Center
Thu 12:28:19 PM 44.2814 -92.8808 177° South 220 253 6,400  Descending Minneapolis Center
Thu 12:29:21 PM 44.2928 -92.9208 292° West 216 249 6,500 48 Climbing Minneapolis Center
Thu 12:30:23 PM 44.3519 -92.9269 356° North 204 235 6,500  Level Minneapolis Center
Thu 12:31:25 PM 44.3319 -92.9411 207° Southwest 238 274 6,500  Level Minneapolis Center
Thu 12:32:27 PM 44.3667 -92.8872 48° Northeast 255 293 6,500 48 Level Minneapolis Center
Thu 12:33:29 PM 44.3483 -92.9169 229° Southwest 197 227 6,600  Climbing Minneapolis Center
Thu 12:34:31 PM 44.4058 -92.9203 358° North 205 236 6,500 -97 Descending Minneapolis Center
Thu 12:35:33 PM 44.3900 -92.9017 140° Southeast 217 250 6,400  Descending Minneapolis Center
Thu 12:36:35 PM 44.4425 -92.9031 359° North 202 232 6,500  Climbing Minneapolis Center
Thu 12:37:37 PM 44.4536 -92.8614 70° East 242 278 6,400  Descending Minneapolis Center
Thu 12:38:39 PM 44.4739 -92.8889 316° Northwest 209 241 6,500 48 Climbing Minneapolis Center
Thu 12:39:41 PM 44.4850 -92.9328 290° West 200 230 6,500 -48 Level Minneapolis Center
Thu 12:40:43 PM 44.4261 -92.9314 179° South 211 243 6,400 -48 Descending Minneapolis Center
Thu 12:41:45 PM 44.3575 -92.9286 178° South 205 236 6,400  Level Minneapolis Center
Thu 12:42:47 PM 44.3217 -92.9250 176° South 124 143 6,400 339 Level Minneapolis Center
Thu 12:43:49 PM 44.2683 -92.9194 176° South 205 236 7,100 32 Climbing Minneapolis Center
Thu 12:45:54 PM 44.2736 -92.8692 44° Northeast 161 185 6,500 -193 Descending Minneapolis Center
Thu 12:46:56 PM 44.3019 -92.8642 North 102 117 6,500 194 Level Minneapolis Center
Thu 12:47:58 PM 44.3472 -92.8575 North 162 186 6,900  Climbing Minneapolis Center
Thu 12:49:00 PM 44.3897 -92.8517 North 153 176 6,500 -129 Descending Minneapolis Center
Thu 12:51:04 PM 44.3478 -92.8706 198° South 138 159 6,500 -32 Level Minneapolis Center
Thu 12:52:06 PM 44.2931 -92.8672 178° South 210 242 6,400  Descending Minneapolis Center
Thu 12:53:08 PM 44.2356 -92.8631 177° South 191 220 6,500 48 Climbing Minneapolis Center
Thu 12:54:10 PM 44.1883 -92.8597 177° South 176 203 6,500  Level Minneapolis Center
Thu 12:55:12 PM 44.1336 -92.8553 177° South 183 211 6,500 -387 Level Minneapolis Center
Thu 12:56:14 PM 44.0947 -92.8161 144° Southeast 223 257 5,700 -1,248 Descending Minneapolis Center
Thu 12:57:17 PM 44.1386 -92.7531 46° Northeast 212 244 3,900 -1,296 Descending Minneapolis Center
Thu 12:58:19 PM 44.1811 -92.7050 39° Northeast 201 231 3,000 -435 Descending Minneapolis Center
Thu 12:59:21 PM 44.2183 -92.6575 42° Northeast 171 197 3,000  Level Minneapolis Center
Thu 01:00:23 PM 44.2511 -92.6156 43° Northeast 163 188 3,000  Level Minneapolis Center
Thu 01:01:25 PM 44.2883 -92.5681 42° Northeast 167 192 3,000  Level Minneapolis Center
Thu 01:02:27 PM 44.3233 -92.5239 42° Northeast 168 193 3,000  Level Minneapolis Center
Thu 01:03:29 PM 44.3550 -92.4814 44° Northeast 169 194 3,000  Level Minneapolis Center
Thu 01:04:31 PM 44.3911 -92.4367 42° Northeast 171 197 3,000  Level Minneapolis Center
Thu 01:05:33 PM 44.4339 -92.3831 42° Northeast 171 197 3,000  Level Minneapolis Center
Thu 01:06:35 PM 44.4686 -92.3378 43° Northeast 171 197 3,000  Level Minneapolis Center
Thu 01:07:37 PM 44.5064 -92.2900 42° Northeast 171 197 3,000  Level Minneapolis Center
Thu 01:08:39 PM 44.5406 -92.2461 42° Northeast 170 196 3,000  Level Minneapolis Center
Thu 01:09:41 PM 44.5769 -92.1964 44° Northeast 170 196 3,000  Level Minneapolis Center
Thu 01:10:43 PM 44.5897 -92.1297 75° East 173 199 3,000  Level Minneapolis Center
Thu 01:11:46 PM 44.5678 -92.1514 215° Southwest 149 171 3,000 -48 Level Minneapolis Center
Thu 01:12:48 PM 44.5789 -92.2111 285° West 149 171 2,900 -145 Descending Minneapolis Center
Thu 01:13:50 PM 44.5794 -92.2650 271° West 141 162 2,700 -97 Descending Minneapolis Center
Thu 01:14:52 PM 44.5819 -92.3208 274° West 137 158 2,700 -97 Level Minneapolis Center
Thu 01:15:54 PM 44.5839 -92.3742 273° West 137 158 2,500 -484 Descending Minneapolis Center
Thu 01:16:56 PM 44.5864 -92.4247 274° West 130 150 1,700 -726 Descending Minneapolis Center
Thu 01:17:58 PM 44.5872 -92.4628 272° West 114 131 1,000 -677 Descending Minneapolis Center

Login

Don't have an account? Register now (free) for customized features, flight alerts, and more!